Alliance — WBV3784 — position and weather

sailwx.info

Track history (hours):
 
Tides and Currents Weather Stations Pressure Air Temp Water Temp Dewpoint Dewpoint Depression Visibility Wind Speed Wind Dir Waves Ship Positions

Alliance

Owner: PACCAR INC, BELLEVUE, WA. More information available from US FCC via Universal Licensing System and Coast Guard Vessel Documentation Center.

Last reported at 2017-Oct-20 12:27 UTC. Time now 2017-Oct-20 12:42 UTC.
Position N 47°37' W 122°13'.

; draft 3 m.

Type: Pleasure craft. MMSI: 303639000.

Date/timePositionNaut miles runAvg speedWind from/ knotsBaromVisibWave heightAir tempDewpointWater temp
2017-Oct-20 12:27N 47°37' W 122°13'0 0.0
2017-Oct-20 12:00N 47°37' W 122°13'0 0.0
2017-Oct-20 11:30N 47°37' W 122°13'0 0.0
2017-Oct-20 11:00N 47°37' W 122°13'0 0.0
2017-Oct-20 10:30N 47°37' W 122°13'0 0.0
2017-Oct-20 09:54N 47°37' W 122°13'0 0.0
2017-Oct-20 09:30N 47°37' W 122°13'0 0.0
2017-Oct-20 08:57N 47°37' W 122°13'0 0.0
2017-Oct-20 08:30N 47°37' W 122°13'0 0.0
2017-Oct-20 08:00N 47°37' W 122°13'0 0.0
2017-Oct-20 07:30N 47°37' W 122°13'0 0.0
2017-Oct-20 06:54N 47°37' W 122°13'0 0.0
2017-Oct-19 21:27N 47°37' W 122°13'0 0.0
2017-Oct-19 21:00N 47°37' W 122°13'0 0.0
2017-Oct-19 20:24N 47°37' W 122°13'0 0.0
2017-Oct-19 19:42N 47°37' W 122°13'0 0.0
2017-Oct-19 19:27N 47°37' W 122°13'0 0.0
2017-Oct-19 19:00N 47°37' W 122°13'0 0.0
2017-Oct-19 18:27N 47°37' W 122°13'0 0.0
2017-Oct-19 18:00N 47°37' W 122°13'0 0.0
2017-Oct-19 17:27N 47°37' W 122°13'0 0.0
2017-Oct-19 14:54N 47°37' W 122°13'0 0.0
2017-Oct-19 14:30N 47°37' W 122°13'0 0.0
2017-Oct-19 13:12N 47°37' W 122°13'0 0.0
2017-Oct-19 12:42N 47°37' W 122°13'0 0.0
2017-Oct-19 12:30N 47°37' W 122°13'0 0.0
2017-Oct-19 12:00N 47°37' W 122°13'0 0.0
2017-Oct-19 11:24N 47°37' W 122°13'0 0.0
2017-Oct-19 11:00N 47°37' W 122°13'0 0.0
2017-Oct-19 10:30N 47°37' W 122°13'0 0.0
2017-Oct-19 10:00N 47°37' W 122°13'0 0.0
2017-Oct-19 09:30N 47°37' W 122°13'0 0.0
2017-Oct-19 09:00N 47°37' W 122°13'0 0.0
2017-Oct-19 08:24N 47°37' W 122°13'0 0.0
2017-Oct-19 08:00N 47°37' W 122°13'0 0.0
2017-Oct-19 07:27N 47°37' W 122°13'0 0.0
2017-Oct-19 06:54N 47°37' W 122°13'0 0.0
2017-Oct-19 06:30N 47°37' W 122°13'0 0.0
2017-Oct-18 22:36N 47°37' W 122°13'0 0.0
2017-Oct-18 22:24N 47°37' W 122°13'0 0.0
2017-Oct-18 21:57N 47°37' W 122°13'0 0.0
2017-Oct-18 18:18N 47°37' W 122°13'0 0.0
2017-Oct-18 18:00N 47°37' W 122°13'0 0.0
2017-Oct-18 14:00N 47°37' W 122°13'0 0.0
2017-Oct-18 13:27N 47°37' W 122°13'0 0.0
2017-Oct-18 13:00N 47°37' W 122°13'0 0.0
2017-Oct-18 12:30N 47°37' W 122°13'0 0.0
2017-Oct-18 12:00N 47°37' W 122°13'0 0.0
2017-Oct-18 11:30N 47°37' W 122°13'0 0.0
2017-Oct-18 11:00N 47°37' W 122°13'0 0.0
2017-Oct-18 10:30N 47°37' W 122°13'0 0.0
2017-Oct-18 09:57N 47°37' W 122°13'0 0.0
2017-Oct-18 09:30N 47°37' W 122°13'0 0.0
2017-Oct-18 09:00N 47°37' W 122°13'0 0.0
2017-Oct-18 08:27N 47°37' W 122°13'0 0.0
2017-Oct-18 08:00N 47°37' W 122°13'0 0.0
2017-Oct-18 07:27N 47°37' W 122°13'0 0.0
2017-Oct-18 07:00N 47°37' W 122°13'0 0.0
2017-Oct-18 06:30N 47°37' W 122°13'0 0.2
2017-Oct-18 03:42N 47°36' W 122°13'1 6.6
2017-Oct-18 03:30N 47°37' W 122°15'3 5.0
2017-Oct-18 02:55N 47°39' W 122°18'1 2.1
2017-Oct-18 02:30N 47°39' W 122°20'1 1.1
2017-Oct-18 01:59N 47°39' W 122°19'3 6.3
2017-Oct-18 01:30N 47°38' W 122°15'2 1.1
2017-Oct-17 23:37N 47°37' W 122°13'0 0.0
2017-Oct-17 23:25N 47°37' W 122°13'0 0.0
2017-Oct-17 21:49N 47°37' W 122°13'0 0.0
2017-Oct-17 21:25N 47°37' W 122°13'0 0.0
2017-Oct-17 20:55N 47°37' W 122°13'0 0.0
2017-Oct-17 20:25N 47°37' W 122°13'0 0.0
2017-Oct-17 19:55N 47°37' W 122°13'0 0.0
2017-Oct-17 19:25N 47°37' W 122°13'0 0.0
2017-Oct-17 18:49N 47°37' W 122°13'0 0.0
2017-Oct-17 18:25N 47°37' W 122°13'0 0.0
2017-Oct-17 17:55N 47°37' W 122°13'0 0.0
2017-Oct-17 16:31N 47°37' W 122°13'0 0.0
2017-Oct-17 13:25N 47°37' W 122°13'0 0.0
2017-Oct-17 12:55N 47°37' W 122°13'0 0.0
2017-Oct-17 12:25N 47°37' W 122°13'0 0.0
2017-Oct-17 11:49N 47°37' W 122°13'0 0.0
2017-Oct-17 11:19N 47°37' W 122°13'0 0.0
2017-Oct-17 10:55N 47°37' W 122°13'0 0.0
2017-Oct-17 10:25N 47°37' W 122°13'0 0.0
2017-Oct-17 09:49N 47°37' W 122°13'0 0.0
2017-Oct-17 09:01N 47°37' W 122°13'0 0.0
2017-Oct-17 08:43N 47°37' W 122°13'0 0.0
2017-Oct-17 08:25N 47°37' W 122°13'0 0.0
2017-Oct-17 07:55N 47°37' W 122°13'0 0.0
2017-Oct-17 07:25N 47°37' W 122°13'0 0.0
2017-Oct-17 06:55N 47°37' W 122°13'0 0.0
2017-Oct-17 06:25N 47°37' W 122°13'0 0.0
2017-Oct-16 20:13N 47°37' W 122°13'0 0.0
2017-Oct-16 19:43N 47°37' W 122°13'0 0.0
2017-Oct-16 19:19N 47°37' W 122°13'0 0.0
2017-Oct-16 18:55N 47°37' W 122°13'0 0.0
2017-Oct-16 18:07N 47°37' W 122°13'0 0.0
2017-Oct-16 13:37N 47°37' W 122°13'0 0.0
2017-Oct-16 13:25N 47°37' W 122°13'0 0.0
2017-Oct-16 12:55N 47°37' W 122°13'0 0.0
2017-Oct-16 12:25N 47°37' W 122°13'0 0.0
2017-Oct-16 11:55N 47°37' W 122°13'0 0.0
2017-Oct-16 11:25N 47°37' W 122°13'0 0.0
2017-Oct-16 10:55N 47°37' W 122°13'0 0.0
2017-Oct-16 10:25N 47°37' W 122°13'0 0.0
2017-Oct-16 09:55N 47°37' W 122°13'0 0.0
2017-Oct-16 09:25N 47°37' W 122°13'0 0.0
2017-Oct-16 08:55N 47°37' W 122°13'0 0.0
2017-Oct-16 08:25N 47°37' W 122°13'0 0.0
2017-Oct-16 07:43N 47°37' W 122°13'0 0.0
2017-Oct-16 07:25N 47°37' W 122°13'0 0.0
2017-Oct-16 06:55N 47°37' W 122°13'0 0.0
2017-Oct-16 06:13N 47°37' W 122°13'0 0.0
2017-Oct-16 05:55N 47°37' W 122°13'0 0.0
2017-Oct-15 21:19N 47°37' W 122°13'0 0.0
2017-Oct-15 20:55N 47°37' W 122°13'0 0.0
2017-Oct-15 20:25N 47°37' W 122°13'0 0.0
2017-Oct-15 17:37N 47°37' W 122°13'0 0.0
2017-Oct-15 17:19N 47°37' W 122°13'0 0.0
2017-Oct-15 13:31N 47°37' W 122°13'0 0.0
2017-Oct-15 13:25N 47°37' W 122°13'0 0.0
2017-Oct-15 12:55N 47°37' W 122°13'0 0.0
2017-Oct-15 12:25N 47°37' W 122°13'0 0.0
2017-Oct-15 11:55N 47°37' W 122°13'0 0.0
2017-Oct-15 11:19N 47°37' W 122°13'0 0.0
2017-Oct-15 10:55N 47°37' W 122°13'0 0.0
2017-Oct-15 10:19N 47°37' W 122°13'0 0.0
2017-Oct-15 09:55N 47°37' W 122°13'0 0.0
2017-Oct-15 09:25N 47°37' W 122°13'0 0.0
2017-Oct-15 08:55N 47°37' W 122°13'0 0.0
2017-Oct-15 08:25N 47°37' W 122°13'0 0.0
2017-Oct-15 07:49N 47°37' W 122°13'0 0.0
2017-Oct-15 07:19N 47°37' W 122°13'0 0.0
2017-Oct-15 06:49N 47°37' W 122°13'0 0.0
2017-Oct-15 06:25N 47°37' W 122°13'0 0.0
2017-Oct-15 02:19N 47°37' W 122°13'0 0.0
2017-Oct-15 01:49N 47°37' W 122°13'0 0.0
2017-Oct-14 21:55N 47°37' W 122°13'0 0.0
2017-Oct-14 20:13N 47°37' W 122°13'0 0.0
2017-Oct-14 19:13N 47°37' W 122°13'0 0.0
2017-Oct-14 18:55N 47°37' W 122°13'0 0.0
2017-Oct-14 18:19N 47°37' W 122°13'0 0.0
2017-Oct-14 17:55N 47°37' W 122°13'0 0.0
2017-Oct-14 17:19N 47°37' W 122°13'0 0.0
2017-Oct-14 13:37N 47°37' W 122°13'0 0.0
2017-Oct-14 13:25N 47°37' W 122°13'0 0.0
2017-Oct-14 12:55N 47°37' W 122°13'0 0.0
2017-Oct-14 12:25N 47°37' W 122°13'0 0.0
2017-Oct-14 11:55N 47°37' W 122°13'0 0.0
2017-Oct-14 11:25N 47°37' W 122°13'0 0.0
2017-Oct-14 10:55N 47°37' W 122°13'0 0.0
2017-Oct-14 10:25N 47°37' W 122°13'0 0.0
2017-Oct-14 09:55N 47°37' W 122°13'0 0.0
2017-Oct-14 09:19N 47°37' W 122°13'0 0.0
2017-Oct-14 08:55N 47°37' W 122°13'0 0.0
2017-Oct-14 08:25N 47°37' W 122°13'0 0.0
2017-Oct-14 07:49N 47°37' W 122°13'0 0.0
2017-Oct-14 07:13N 47°37' W 122°13'0 0.0
2017-Oct-14 06:55N 47°37' W 122°13'0 0.0
2017-Oct-14 06:19N 47°37' W 122°13'0 0.0
2017-Oct-13 23:19N 47°37' W 122°13'0 0.0
2017-Oct-12 19:07N 47°37' W 122°13'0 0.0
2017-Oct-12 18:55N 47°37' W 122°13'0 0.0
2017-Oct-12 18:25N 47°37' W 122°13'0 0.0
2017-Oct-12 16:55N 47°37' W 122°13'0 0.0
2017-Oct-12 12:31N 47°37' W 122°13'0 0.0
2017-Oct-12 11:49N 47°37' W 122°13'0 0.0
2017-Oct-12 11:25N 47°37' W 122°13'0 0.0
2017-Oct-12 10:49N 47°37' W 122°13'0 0.0
2017-Oct-12 10:19N 47°37' W 122°13'0 0.0
2017-Oct-12 09:55N 47°37' W 122°13'0 0.0
2017-Oct-12 09:25N 47°37' W 122°13'0 0.0
2017-Oct-12 08:49N 47°37' W 122°13'0 0.0
2017-Oct-12 08:19N 47°37' W 122°13'0 0.0
2017-Oct-12 07:55N 47°37' W 122°13'0 0.0
2017-Oct-12 07:19N 47°37' W 122°13'0 0.0
2017-Oct-12 06:55N 47°37' W 122°13'0 0.0
2017-Oct-12 06:25N 47°37' W 122°13'0 0.0
2017-Oct-12 05:55N 47°37' W 122°13'0 0.0
2017-Oct-12 05:19N 47°37' W 122°13'0 0.0
2017-Oct-11 16:55N 47°37' W 122°13'0 0.0
2017-Oct-10 18:13N 47°37' W 122°13'0 0.0
2017-Oct-10 13:25N 47°37' W 122°13'0 0.0
2017-Oct-10 12:49N 47°37' W 122°13'  
Track history (hours):
 
Tides and Currents Weather Stations Pressure Air Temp Water Temp Dewpoint Dewpoint Depression Visibility Wind Speed Wind Dir Waves Ship Positions

Alliance

Owner: PACCAR INC, BELLEVUE, WA. More information available from US FCC via Universal Licensing System and Coast Guard Vessel Documentation Center.

Last reported at 2017-Oct-20 12:27 UTC. Time now 2017-Oct-20 12:42 UTC.
Position N 47°37' W 122°13'.

; draft 3 m.

Type: Pleasure craft. MMSI: 303639000.

Date/timePositionNaut miles runAvg speedWind from/ knotsBaromVisibWave heightAir tempDewpointWater temp
2017-Oct-20 12:27N 47°37' W 122°13'0 0.0
2017-Oct-20 12:00N 47°37' W 122°13'0 0.0
2017-Oct-20 11:30N 47°37' W 122°13'0 0.0
2017-Oct-20 11:00N 47°37' W 122°13'0 0.0
2017-Oct-20 10:30N 47°37' W 122°13'0 0.0
2017-Oct-20 09:54N 47°37' W 122°13'0 0.0
2017-Oct-20 09:30N 47°37' W 122°13'0 0.0
2017-Oct-20 08:57N 47°37' W 122°13'0 0.0
2017-Oct-20 08:30N 47°37' W 122°13'0 0.0
2017-Oct-20 08:00N 47°37' W 122°13'0 0.0
2017-Oct-20 07:30N 47°37' W 122°13'0 0.0
2017-Oct-20 06:54N 47°37' W 122°13'0 0.0
2017-Oct-19 21:27N 47°37' W 122°13'0 0.0
2017-Oct-19 21:00N 47°37' W 122°13'0 0.0
2017-Oct-19 20:24N 47°37' W 122°13'0 0.0
2017-Oct-19 19:42N 47°37' W 122°13'0 0.0
2017-Oct-19 19:27N 47°37' W 122°13'0 0.0
2017-Oct-19 19:00N 47°37' W 122°13'0 0.0
2017-Oct-19 18:27N 47°37' W 122°13'0 0.0
2017-Oct-19 18:00N 47°37' W 122°13'0 0.0
2017-Oct-19 17:27N 47°37' W 122°13'0 0.0
2017-Oct-19 14:54N 47°37' W 122°13'0 0.0
2017-Oct-19 14:30N 47°37' W 122°13'0 0.0
2017-Oct-19 13:12N 47°37' W 122°13'0 0.0
2017-Oct-19 12:42N 47°37' W 122°13'0 0.0
2017-Oct-19 12:30N 47°37' W 122°13'0 0.0
2017-Oct-19 12:00N 47°37' W 122°13'0 0.0
2017-Oct-19 11:24N 47°37' W 122°13'0 0.0
2017-Oct-19 11:00N 47°37' W 122°13'0 0.0
2017-Oct-19 10:30N 47°37' W 122°13'0 0.0
2017-Oct-19 10:00N 47°37' W 122°13'0 0.0
2017-Oct-19 09:30N 47°37' W 122°13'0 0.0
2017-Oct-19 09:00N 47°37' W 122°13'0 0.0
2017-Oct-19 08:24N 47°37' W 122°13'0 0.0
2017-Oct-19 08:00N 47°37' W 122°13'0 0.0
2017-Oct-19 07:27N 47°37' W 122°13'0 0.0
2017-Oct-19 06:54N 47°37' W 122°13'0 0.0
2017-Oct-19 06:30N 47°37' W 122°13'0 0.0
2017-Oct-18 22:36N 47°37' W 122°13'0 0.0
2017-Oct-18 22:24N 47°37' W 122°13'0 0.0
2017-Oct-18 21:57N 47°37' W 122°13'0 0.0
2017-Oct-18 18:18N 47°37' W 122°13'0 0.0
2017-Oct-18 18:00N 47°37' W 122°13'0 0.0
2017-Oct-18 14:00N 47°37' W 122°13'0 0.0
2017-Oct-18 13:27N 47°37' W 122°13'0 0.0
2017-Oct-18 13:00N 47°37' W 122°13'0 0.0
2017-Oct-18 12:30N 47°37' W 122°13'0 0.0
2017-Oct-18 12:00N 47°37' W 122°13'0 0.0
2017-Oct-18 11:30N 47°37' W 122°13'0 0.0
2017-Oct-18 11:00N 47°37' W 122°13'0 0.0
2017-Oct-18 10:30N 47°37' W 122°13'0 0.0
2017-Oct-18 09:57N 47°37' W 122°13'0 0.0
2017-Oct-18 09:30N 47°37' W 122°13'0 0.0
2017-Oct-18 09:00N 47°37' W 122°13'0 0.0
2017-Oct-18 08:27N 47°37' W 122°13'0 0.0
2017-Oct-18 08:00N 47°37' W 122°13'0 0.0
2017-Oct-18 07:27N 47°37' W 122°13'0 0.0
2017-Oct-18 07:00N 47°37' W 122°13'0 0.0
2017-Oct-18 06:30N 47°37' W 122°13'0 0.2
2017-Oct-18 03:42N 47°36' W 122°13'1 6.6
2017-Oct-18 03:30N 47°37' W 122°15'3 5.0
2017-Oct-18 02:55N 47°39' W 122°18'1 2.1
2017-Oct-18 02:30N 47°39' W 122°20'1 1.1
2017-Oct-18 01:59N 47°39' W 122°19'3 6.3
2017-Oct-18 01:30N 47°38' W 122°15'2 1.1
2017-Oct-17 23:37N 47°37' W 122°13'0 0.0
2017-Oct-17 23:25N 47°37' W 122°13'0 0.0
2017-Oct-17 21:49N 47°37' W 122°13'0 0.0
2017-Oct-17 21:25N 47°37' W 122°13'0 0.0
2017-Oct-17 20:55N 47°37' W 122°13'0 0.0
2017-Oct-17 20:25N 47°37' W 122°13'0 0.0
2017-Oct-17 19:55N 47°37' W 122°13'0 0.0
2017-Oct-17 19:25N 47°37' W 122°13'0 0.0
2017-Oct-17 18:49N 47°37' W 122°13'0 0.0
2017-Oct-17 18:25N 47°37' W 122°13'0 0.0
2017-Oct-17 17:55N 47°37' W 122°13'0 0.0
2017-Oct-17 16:31N 47°37' W 122°13'0 0.0
2017-Oct-17 13:25N 47°37' W 122°13'0 0.0
2017-Oct-17 12:55N 47°37' W 122°13'0 0.0
2017-Oct-17 12:25N 47°37' W 122°13'0 0.0
2017-Oct-17 11:49N 47°37' W 122°13'0 0.0
2017-Oct-17 11:19N 47°37' W 122°13'0 0.0
2017-Oct-17 10:55N 47°37' W 122°13'0 0.0
2017-Oct-17 10:25N 47°37' W 122°13'0 0.0
2017-Oct-17 09:49N 47°37' W 122°13'0 0.0
2017-Oct-17 09:01N 47°37' W 122°13'0 0.0
2017-Oct-17 08:43N 47°37' W 122°13'0 0.0
2017-Oct-17 08:25N 47°37' W 122°13'0 0.0
2017-Oct-17 07:55N 47°37' W 122°13'0 0.0
2017-Oct-17 07:25N 47°37' W 122°13'0 0.0
2017-Oct-17 06:55N 47°37' W 122°13'0 0.0
2017-Oct-17 06:25N 47°37' W 122°13'0 0.0
2017-Oct-16 20:13N 47°37' W 122°13'0 0.0
2017-Oct-16 19:43N 47°37' W 122°13'0 0.0
2017-Oct-16 19:19N 47°37' W 122°13'0 0.0
2017-Oct-16 18:55N 47°37' W 122°13'0 0.0
2017-Oct-16 18:07N 47°37' W 122°13'0 0.0
2017-Oct-16 13:37N 47°37' W 122°13'0 0.0
2017-Oct-16 13:25N 47°37' W 122°13'0 0.0
2017-Oct-16 12:55N 47°37' W 122°13'0 0.0
2017-Oct-16 12:25N 47°37' W 122°13'0 0.0
2017-Oct-16 11:55N 47°37' W 122°13'0 0.0
2017-Oct-16 11:25N 47°37' W 122°13'0 0.0
2017-Oct-16 10:55N 47°37' W 122°13'0 0.0
2017-Oct-16 10:25N 47°37' W 122°13'0 0.0
2017-Oct-16 09:55N 47°37' W 122°13'0 0.0
2017-Oct-16 09:25N 47°37' W 122°13'0 0.0
2017-Oct-16 08:55N 47°37' W 122°13'0 0.0
2017-Oct-16 08:25N 47°37' W 122°13'0 0.0
2017-Oct-16 07:43N 47°37' W 122°13'0 0.0
2017-Oct-16 07:25N 47°37' W 122°13'0 0.0
2017-Oct-16 06:55N 47°37' W 122°13'0 0.0
2017-Oct-16 06:13N 47°37' W 122°13'0 0.0
2017-Oct-16 05:55N 47°37' W 122°13'0 0.0
2017-Oct-15 21:19N 47°37' W 122°13'0 0.0
2017-Oct-15 20:55N 47°37' W 122°13'0 0.0
2017-Oct-15 20:25N 47°37' W 122°13'0 0.0
2017-Oct-15 17:37N 47°37' W 122°13'0 0.0
2017-Oct-15 17:19N 47°37' W 122°13'0 0.0
2017-Oct-15 13:31N 47°37' W 122°13'0 0.0
2017-Oct-15 13:25N 47°37' W 122°13'0 0.0
2017-Oct-15 12:55N 47°37' W 122°13'0 0.0
2017-Oct-15 12:25N 47°37' W 122°13'0 0.0
2017-Oct-15 11:55N 47°37' W 122°13'0 0.0
2017-Oct-15 11:19N 47°37' W 122°13'0 0.0
2017-Oct-15 10:55N 47°37' W 122°13'0 0.0
2017-Oct-15 10:19N 47°37' W 122°13'0 0.0
2017-Oct-15 09:55N 47°37' W 122°13'0 0.0
2017-Oct-15 09:25N 47°37' W 122°13'0 0.0
2017-Oct-15 08:55N 47°37' W 122°13'0 0.0
2017-Oct-15 08:25N 47°37' W 122°13'0 0.0
2017-Oct-15 07:49N 47°37' W 122°13'0 0.0
2017-Oct-15 07:19N 47°37' W 122°13'0 0.0
2017-Oct-15 06:49N 47°37' W 122°13'0 0.0
2017-Oct-15 06:25N 47°37' W 122°13'0 0.0
2017-Oct-15 02:19N 47°37' W 122°13'0 0.0
2017-Oct-15 01:49N 47°37' W 122°13'0 0.0
2017-Oct-14 21:55N 47°37' W 122°13'0 0.0
2017-Oct-14 20:13N 47°37' W 122°13'0 0.0
2017-Oct-14 19:13N 47°37' W 122°13'0 0.0
2017-Oct-14 18:55N 47°37' W 122°13'0 0.0
2017-Oct-14 18:19N 47°37' W 122°13'0 0.0
2017-Oct-14 17:55N 47°37' W 122°13'0 0.0
2017-Oct-14 17:19N 47°37' W 122°13'0 0.0
2017-Oct-14 13:37N 47°37' W 122°13'0 0.0
2017-Oct-14 13:25N 47°37' W 122°13'0 0.0
2017-Oct-14 12:55N 47°37' W 122°13'0 0.0
2017-Oct-14 12:25N 47°37' W 122°13'0 0.0
2017-Oct-14 11:55N 47°37' W 122°13'0 0.0
2017-Oct-14 11:25N 47°37' W 122°13'0 0.0
2017-Oct-14 10:55N 47°37' W 122°13'0 0.0
2017-Oct-14 10:25N 47°37' W 122°13'0 0.0
2017-Oct-14 09:55N 47°37' W 122°13'0 0.0
2017-Oct-14 09:19N 47°37' W 122°13'0 0.0
2017-Oct-14 08:55N 47°37' W 122°13'0 0.0
2017-Oct-14 08:25N 47°37' W 122°13'0 0.0
2017-Oct-14 07:49N 47°37' W 122°13'0 0.0
2017-Oct-14 07:13N 47°37' W 122°13'0 0.0
2017-Oct-14 06:55N 47°37' W 122°13'0 0.0
2017-Oct-14 06:19N 47°37' W 122°13'0 0.0
2017-Oct-13 23:19N 47°37' W 122°13'0 0.0
2017-Oct-12 19:07N 47°37' W 122°13'0 0.0
2017-Oct-12 18:55N 47°37' W 122°13'0 0.0
2017-Oct-12 18:25N 47°37' W 122°13'0 0.0
2017-Oct-12 16:55N 47°37' W 122°13'0 0.0
2017-Oct-12 12:31N 47°37' W 122°13'0 0.0
2017-Oct-12 11:49N 47°37' W 122°13'0 0.0
2017-Oct-12 11:25N 47°37' W 122°13'0 0.0
2017-Oct-12 10:49N 47°37' W 122°13'0 0.0
2017-Oct-12 10:19N 47°37' W 122°13'0 0.0
2017-Oct-12 09:55N 47°37' W 122°13'0 0.0
2017-Oct-12 09:25N 47°37' W 122°13'0 0.0
2017-Oct-12 08:49N 47°37' W 122°13'0 0.0
2017-Oct-12 08:19N 47°37' W 122°13'0 0.0
2017-Oct-12 07:55N 47°37' W 122°13'0 0.0
2017-Oct-12 07:19N 47°37' W 122°13'0 0.0
2017-Oct-12 06:55N 47°37' W 122°13'0 0.0
2017-Oct-12 06:25N 47°37' W 122°13'0 0.0
2017-Oct-12 05:55N 47°37' W 122°13'0 0.0
2017-Oct-12 05:19N 47°37' W 122°13'0 0.0
2017-Oct-11 16:55N 47°37' W 122°13'0 0.0
2017-Oct-10 18:13N 47°37' W 122°13'0 0.0
2017-Oct-10 13:25N 47°37' W 122°13'0 0.0
2017-Oct-10 12:49N 47°37' W 122°13'  

Dump ship's entire track history